| time (UTC) | temp F | wind direction | speed MPH | gust MPH | rain 1hr in | rain 24hr in | rain mn in | humidity % | barometer mb |
| 20260505014603 | 59 | 206 | 0.0 | 0.0 | 0.00 | 0.00 | 0.00 | 100 | 1010.3 |
| 20260505014102 | 59 | 191 | 0.0 | 0.0 | 0.00 | 0.00 | 0.00 | 100 | 1010.3 |
| 20260505014001 | 59 | 191 | 0.0 | 0.0 | 0.00 | 0.00 | 0.00 | 100 | 1010.3 |
| 20260505013513 | 59 | 208 | 1.0 | 0.0 | 0.00 | 0.00 | 0.00 | 100 | 1010.3 |
| 20260505013034 | 59 | 208 | 1.0 | 0.0 | 0.00 | 0.00 | 0.00 | 100 | 1010.2 |
| 20260505012535 | 60 | 230 | 1.0 | 0.0 | 0.00 | 0.00 | 0.00 | 100 | 1010.1 |
| 20260505012050 | 60 | 209 | 0.0 | 0.0 | 0.00 | 0.00 | 0.00 | 100 | 1010.0 |
| 20260505011600 | 60 | 208 | 0.0 | 0.0 | 0.00 | 0.00 | 0.00 | 100 | 1010.0 |
| 20260505011501 | 60 | 208 | 1.0 | 0.0 | 0.00 | 0.00 | 0.00 | 100 | 1010.0 |
| 20260505011015 | 60 | 219 | 1.0 | 0.0 | 0.00 | 0.00 | 0.00 | 100 | 1009.9 |
| 20260505010526 | 60 | 201 | 1.0 | 0.0 | 0.00 | 0.00 | 0.00 | 100 | 1009.8 |
| 20260505010052 | 60 | 177 | 1.0 | 0.0 | 0.00 | 0.00 | 0.00 | 100 | 1009.8 |
| 20260505005554 | 61 | 231 | 1.0 | 0.0 | 0.00 | 0.00 | 0.00 | 100 | 1009.7 |
| 20260505005054 | 61 | 210 | 1.0 | 0.0 | 0.00 | 0.00 | 0.00 | 100 | 1009.4 |
| 20260505004508 | 61 | 218 | 1.0 | 0.0 | 0.00 | 0.00 | 0.00 | 100 | 1009.4 |
| 20260505004020 | 61 | 179 | 0.0 | 0.0 | 0.00 | 0.00 | 0.00 | 100 | 1009.3 |
| 20260505003529 | 61 | 296 | 0.0 | 0.0 | 0.00 | 0.00 | 0.00 | 100 | 1009.1 |
| 20260505003055 | 62 | 296 | 0.0 | 0.0 | 0.00 | 0.00 | 0.00 | 100 | 1009.0 |
| 20260505002554 | 62 | 246 | 0.0 | 0.0 | 0.00 | 0.00 | 0.00 | 100 | 1008.9 |
| 20260505002501 | 62 | 246 | 0.0 | 0.0 | 0.00 | 0.00 | 0.00 | 100 | 1008.9 |
| 20260505002010 | 62 | 246 | 0.0 | 0.0 | 0.00 | 0.00 | 0.00 | 100 | 1008.7 |
| 20260505001525 | 62 | 246 | 1.0 | 0.0 | 0.00 | 0.00 | 0.00 | 100 | 1008.6 |
| 20260505001033 | 63 | 185 | 1.0 | 0.0 | 0.00 | 0.00 | 0.00 | 100 | 1008.5 |
| 20260505000548 | 63 | 131 | 1.0 | 0.0 | 0.00 | 0.00 | 0.00 | 100 | 1008.3 |
| 20260504235514 | 63 | 289 | 2.0 | 0.0 | 0.00 | 0.00 | 0.00 | 100 | 1008.1 |
| 20260504235024 | 63 | 242 | 1.0 | 0.0 | 0.00 | 0.00 | 0.00 | 100 | 1008.1 |
| 20260504234537 | 64 | 138 | 1.0 | 0.0 | 0.00 | 0.00 | 0.00 | 100 | 1007.9 |
| 20260504234047 | 64 | 239 | 1.0 | 0.0 | 0.00 | 0.00 | 0.00 | 100 | 1007.8 |
| 20260504233503 | 64 | 164 | 1.0 | 0.0 | 0.00 | 0.00 | 0.00 | 100 | 1007.9 |
| 20260504233016 | 64 | 204 | 1.0 | 0.0 | 0.00 | 0.00 | 0.00 | 100 | 1007.8 |
| 20260504232530 | 65 | 274 | 2.0 | 0.0 | 0.00 | 0.00 | 0.00 | 100 | 1007.7 |
| 20260504232038 | 65 | 232 | 2.0 | 0.0 | 0.00 | 0.00 | 0.00 | 100 | 1007.6 |
| 20260504231552 | 66 | 152 | 2.0 | 0.0 | 0.00 | 0.00 | 0.00 | 100 | 1007.6 |
| 20260504231003 | 66 | 301 | 3.0 | 0.0 | 0.00 | 0.00 | 0.00 | 100 | 1007.5 |
| 20260504230519 | 66 | 236 | 2.0 | 0.0 | 0.00 | 0.00 | 0.00 | 99 | 1007.5 |
| 20260504230028 | 67 | 236 | 1.0 | 0.0 | 0.00 | 0.00 | 0.00 | 98 | 1007.3 |
| 20260504225542 | 67 | 283 | 1.0 | 0.0 | 0.00 | 0.00 | 0.00 | 98 | 1007.1 |
| 20260504225051 | 67 | 227 | 2.0 | 0.0 | 0.00 | 0.00 | 0.00 | 97 | 1007.0 |
| 20260504224515 | 67 | 226 | 2.0 | 0.0 | 0.00 | 0.00 | 0.00 | 97 | 1007.0 |
| 20260504224018 | 68 | 214 | 2.0 | 0.0 | 0.00 | 0.00 | 0.00 | 96 | 1006.8 |
| 20260504223532 | 68 | 212 | 1.0 | 0.0 | 0.00 | 0.00 | 0.00 | 96 | 1006.8 |
| 20260504223058 | 68 | 173 | 1.0 | 0.0 | 0.00 | 0.00 | 0.00 | 95 | 1006.7 |
| 20260504222556 | 69 | 107 | 1.0 | 0.0 | 0.00 | 0.00 | 0.00 | 94 | 1006.8 |
| 20260504222012 | 69 | 197 | 2.0 | 0.0 | 0.00 | 0.00 | 0.00 | 94 | 1006.8 |
| 20260504221523 | 69 | 266 | 2.0 | 0.0 | 0.00 | 0.00 | 0.00 | 94 | 1006.7 |
| 20260504221037 | 70 | 212 | 3.0 | 0.0 | 0.00 | 0.00 | 0.00 | 92 | 1006.7 |
| 20260504220546 | 70 | 271 | 2.0 | 0.0 | 0.00 | 0.00 | 0.00 | 91 | 1006.7 |
| 20260504220003 | 71 | 186 | 1.0 | 0.0 | 0.00 | 0.00 | 0.00 | 90 | 1006.7 |
| 20260504215512 | 71 | 246 | 0.0 | 0.0 | 0.00 | 0.00 | 0.00 | 89 | 1006.6 |
| 20260504215029 | 71 | 318 | 1.0 | 0.0 | 0.00 | 0.00 | 0.00 | 89 | 1006.7 |
| 20260504214535 | 71 | 191 | 1.0 | 0.0 | 0.00 | 0.00 | 0.00 | 88 | 1006.7 |
| 20260504214052 | 71 | 227 | 1.0 | 0.0 | 0.00 | 0.00 | 0.00 | 89 | 1006.7 |
| 20260504213600 | 71 | 177 | 1.0 | 0.0 | 0.00 | 0.00 | 0.00 | 88 | 1006.6 |
| 20260504213504 | 71 | 176 | 1.0 | 0.0 | 0.00 | 0.00 | 0.00 | 89 | 1006.6 |
| 20260504213023 | 71 | 212 | 2.0 | 0.0 | 0.00 | 0.00 | 0.00 | 88 | 1006.7 |
| 20260504212526 | 72 | 247 | 2.0 | 0.0 | 0.00 | 0.00 | 0.00 | 87 | 1006.6 |
| 20260504212039 | 72 | 220 | 2.0 | 0.0 | 0.00 | 0.00 | 0.00 | 87 | 1006.7 |
| 20260504211633 | 72 | 248 | 2.0 | 0.0 | 0.00 | 0.00 | 0.00 | 88 | 1006.5 |
| 20260504211006 | 71 | 281 | 1.0 | 0.0 | 0.00 | 0.00 | 0.00 | 88 | 1006.6 |
| 20260504210516 | 72 | 208 | 2.0 | 0.0 | 0.00 | 0.00 | 0.00 | 88 | 1006.5 |
| 20260504210033 | 72 | 167 | 1.0 | 0.0 | 0.00 | 0.00 | 0.00 | 88 | 1006.6 |
| 20260504205539 | 73 | 221 | 1.0 | 0.0 | 0.00 | 0.00 | 0.00 | 87 | 1006.6 |
| 20260504205053 | 73 | 268 | 1.0 | 0.0 | 0.00 | 0.00 | 0.00 | 87 | 1006.5 |
| 20260504204506 | 72 | 196 | 1.0 | 0.0 | 0.00 | 0.00 | 0.00 | 87 | 1006.5 |
| 20260504204020 | 72 | 249 | 1.0 | 0.0 | 0.00 | 0.00 | 0.00 | 87 | 1006.5 |
| 20260504203530 | 72 | 174 | 1.0 | 0.0 | 0.00 | 0.00 | 0.00 | 87 | 1006.7 |
| 20260504203044 | 72 | 213 | 2.0 | 0.0 | 0.00 | 0.00 | 0.00 | 87 | 1006.6 |
| 20260504202554 | 72 | 285 | 2.0 | 0.0 | 0.00 | 0.00 | 0.00 | 87 | 1006.6 |
| 20260504202501 | 72 | 291 | 2.0 | 0.0 | 0.00 | 0.00 | 0.00 | 87 | 1006.7 |
| 20260504202010 | 71 | 209 | 2.0 | 0.0 | 0.00 | 0.00 | 0.00 | 87 | 1006.7 |
| 20260504081527 | 43 | 340 | 0.0 | 0.0 | 0.00 | 0.00 | 0.00 | 100 | 1010.6 |
| 20260504081036 | 43 | 340 | 0.0 | 0.0 | 0.00 | 0.00 | 0.00 | 100 | 1010.5 |
| 20260504080551 | 43 | 340 | 0.0 | 0.0 | 0.00 | 0.00 | 0.00 | 100 | 1010.5 |
| 20260504070129 | 41 | 340 | 0.0 | 0.0 | 0.00 | 0.00 | 0.00 | 100 | 1010.4 |
| 20260504050600 | 34 | 340 | 0.0 | 0.0 | 0.00 | 0.00 | 0.00 | 86 | 1010.4 |
| 20260504050503 | 34 | 340 | 0.0 | 0.0 | 0.00 | 0.00 | 0.00 | 87 | 1010.5 |
| 20260504050025 | 34 | 340 | 0.0 | 0.0 | 0.00 | 0.00 | 0.00 | 88 | 1010.5 |
| 20260504045526 | 34 | 340 | 0.0 | 0.0 | 0.00 | 0.00 | 0.00 | 91 | 1010.4 |
| 20260504045040 | 34 | 340 | 0.0 | 0.0 | 0.00 | 0.00 | 0.00 | 95 | 1010.5 |
| 20260504044550 | 34 | 340 | 0.0 | 0.0 | 0.00 | 0.00 | 0.00 | 98 | 1010.5 |
| 20260504044006 | 34 | 340 | 0.0 | 0.0 | 0.00 | 0.00 | 0.00 | 100 | 1010.6 |
| 20260504043523 | 34 | 340 | 0.0 | 0.0 | 0.00 | 0.00 | 0.00 | 100 | 1010.6 |
| 20260504043031 | 35 | 340 | 0.0 | 0.0 | 0.00 | 0.00 | 0.00 | 100 | 1010.5 |
| 20260504042548 | 35 | 340 | 0.0 | 0.0 | 0.00 | 0.00 | 0.00 | 100 | 1010.5 |
| 20260504042054 | 35 | 340 | 0.0 | 0.0 | 0.00 | 0.00 | 0.00 | 100 | 1010.4 |
| 20260504041515 | 35 | 340 | 0.0 | 0.0 | 0.00 | 0.00 | 0.00 | 100 | 1010.4 |
| 20260504041020 | 35 | 340 | 0.0 | 0.0 | 0.00 | 0.00 | 0.00 | 100 | 1010.4 |
| 20260504040534 | 36 | 340 | 0.0 | 0.0 | 0.00 | 0.00 | 0.00 | 100 | 1010.3 |
| 20260504040051 | 36 | 340 | 0.0 | 0.0 | 0.00 | 0.00 | 0.00 | 100 | 1010.3 |
| 20260504035552 | 36 | 340 | 0.0 | 0.0 | 0.00 | 0.00 | 0.00 | 100 | 1010.2 |
| 20260504035009 | 36 | 340 | 0.0 | 0.0 | 0.00 | 0.00 | 0.00 | 100 | 1010.1 |
| 20260504034519 | 36 | 340 | 0.0 | 0.0 | 0.00 | 0.00 | 0.00 | 100 | 1010.1 |
| 20260504034034 | 36 | 340 | 0.0 | 0.0 | 0.00 | 0.00 | 0.00 | 100 | 1010.1 |
| 20260504033541 | 36 | 340 | 0.0 | 0.0 | 0.00 | 0.00 | 0.00 | 100 | 1010.0 |
| 20260504033056 | 36 | 340 | 0.0 | 0.0 | 0.00 | 0.00 | 0.00 | 100 | 1010.0 |
| 20260504032513 | 37 | 340 | 0.0 | 0.0 | 0.00 | 0.00 | 0.00 | 100 | 1010.0 |
| 20260504032021 | 37 | 340 | 0.0 | 0.0 | 0.00 | 0.00 | 0.00 | 100 | 1010.0 |
| 20260504031551 | 37 | 340 | 0.0 | 0.0 | 0.00 | 0.00 | 0.00 | 100 | 1010.1 |
| 20260504031046 | 37 | 340 | 0.0 | 0.0 | 0.00 | 0.00 | 0.00 | 100 | 1010.0 |
| 20260504030601 | 37 | 340 | 0.0 | 0.0 | 0.00 | 0.00 | 0.00 | 100 | 1010.0 |
| 20260504030010 | 37 | 340 | 0.0 | 0.0 | 0.00 | 0.00 | 0.00 | 100 | 1010.0 |
| 20260504025522 | 38 | 340 | 0.0 | 0.0 | 0.00 | 0.00 | 0.00 | 100 | 1010.0 |
| 20260504025033 | 38 | 340 | 0.0 | 0.0 | 0.00 | 0.00 | 0.00 | 100 | 1010.0 |
| 20260504024548 | 38 | 340 | 0.0 | 0.0 | 0.00 | 0.00 | 0.00 | 100 | 1010.0 |
| 20260504024056 | 38 | 340 | 0.0 | 0.0 | 0.00 | 0.00 | 0.00 | 100 | 1010.0 |
| 20260504023512 | 39 | 340 | 0.0 | 0.0 | 0.00 | 0.00 | 0.00 | 100 | 1009.9 |
| 20260504023022 | 39 | 340 | 0.0 | 0.0 | 0.00 | 0.00 | 0.00 | 100 | 1009.9 |
| 20260504022536 | 39 | 340 | 0.0 | 0.0 | 0.00 | 0.00 | 0.00 | 100 | 1009.8 |
| 20260504022046 | 39 | 340 | 0.0 | 0.0 | 0.00 | 0.00 | 0.00 | 100 | 1009.9 |
| 20260504021600 | 40 | 340 | 0.0 | 0.0 | 0.00 | 0.00 | 0.00 | 100 | 1009.8 |
| 20260504021503 | 40 | 340 | 0.0 | 0.0 | 0.00 | 0.00 | 0.00 | 100 | 1009.8 |
| 20260504021012 | 40 | 340 | 0.0 | 0.0 | 0.00 | 0.00 | 0.00 | 100 | 1009.8 |
| 20260504020526 | 40 | 340 | 0.0 | 0.0 | 0.00 | 0.00 | 0.00 | 100 | 1009.8 |
| 20260504020036 | 40 | 340 | 0.0 | 0.0 | 0.00 | 0.00 | 0.00 | 100 | 1009.8 |
| 20260504015554 | 41 | 340 | 0.0 | 0.0 | 0.00 | 0.00 | 0.00 | 100 | 1009.8 |
| 20260504015101 | 41 | 340 | 0.0 | 0.0 | 0.00 | 0.00 | 0.00 | 100 | 1009.7 |
| 20260504015006 | 41 | 340 | 0.0 | 0.0 | 0.00 | 0.00 | 0.00 | 100 | 1009.7 |